CYQA

Details ICAO CYQA (YQA)
Name MUSKOKA
Region Canada
Timezone America/Toronto (UTC-5.0)
Plans Departing 51
Arriving 17
Stats Elevation 925 ft / 282 m (AMSL)
Location 44.971312° -79.304855°
Runways 2
Magnetic Variation 10.874° W
Sunrise 2017-12-14 12:49:21 UTC / 2017-12-14 07:49:21 Local
Sunset 2017-12-14 21:37:28 UTC / 2017-12-14 16:37:28 Local
Advertisement - Login to hide

Runways

ID Width Length Bearing (true) Bearing (mag) Surface Threshold Offset Overrun Length
09 98 ft / 30 m 2,182 ft / 665 m 80.12° 90.99° Grass 0 ft / 0 m 0 ft / 0 m
18 151 ft / 46 m 6,006 ft / 1,831 m 169.70° 180.57° Asphalt 801 ft / 244 m 0 ft / 0 m
27 98 ft / 30 m 2,182 ft / 665 m 260.13° 271.00° Grass 0 ft / 0 m 0 ft / 0 m
36 151 ft / 46 m 6,006 ft / 1,831 m 349.70° 0.57° Asphalt 0 ft / 0 m 0 ft / 0 m

Map

Weather


0- 5 10 15 20 25 30 35+ Temperature / ° C

Clouds and Precipitation
Forecast for 2017-12-14 18:00 UTC. Updated 2 hours ago

Ground ~20,000 ft ~40,000 ft Winds

METAR

CYQA 141500Z AUTO 33007KT 9SM OVC009 M20/M23 A2982 RMK SLP128

TAF

TAF AMD TAF AMD CYQA 141414Z 1414/1501 33007KT P6SM FEW008 TEMPO 1414/1416 BKN008 FM142100 30008KT P6SM BKN015 FM150000 VRB03KT 5SM -SN BKN008 RMK FCST BASED ON AUTO OBS. NXT FCST BY 142000Z

Frequencies

Tower 122.30 MHz MF
Warning: Do not use this data for real-world aviation or navigation. No guarantee of current accuracy is given.